| time (UTC) | temp C | wind direction | speed KPH | gust KPH | rain 1hr cm | rain 24hr cm | rain mn cm | humidity % | barometer mb |
| 20260509090959 | 21 | 80 | 0.0 | 0.0 | 0.00 | 0.00 | 0.00 | 89 | 1008.6 |
| 20260509090456 | 21 | 90 | 3.2 | 3.2 | 0.00 | 0.00 | 0.00 | 89 | 1008.5 |
| 20260509085954 | 21 | 14 | 6.4 | 8.0 | 0.00 | 0.00 | 0.00 | 89 | 1008.6 |
| 20260509085450 | 21 | 49 | 4.8 | 4.8 | 0.00 | 0.00 | 0.00 | 89 | 1008.1 |
| 20260509084947 | 21 | 29 | 8.0 | 9.7 | 0.00 | 0.00 | 0.00 | 89 | 1008.2 |
| 20260509084444 | 21 | 32 | 3.2 | 3.2 | 0.00 | 0.00 | 0.00 | 89 | 1007.5 |
| 20260509083941 | 21 | 149 | 8.0 | 11.3 | 0.00 | 0.00 | 0.00 | 89 | 1007.0 |
| 20260509083438 | 21 | 185 | 9.7 | 12.9 | 0.00 | 0.00 | 0.00 | 89 | 1006.9 |
| 20260509082929 | 21 | 162 | 11.3 | 16.1 | 0.00 | 0.00 | 0.00 | 89 | 1006.8 |
| 20260509082426 | 21 | 165 | 9.7 | 11.3 | 0.00 | 0.00 | 0.00 | 89 | 1006.9 |
| 20260509081923 | 21 | 104 | 19.3 | 25.7 | 0.00 | 0.00 | 0.00 | 89 | 1007.4 |
| 20260509081421 | 21 | 208 | 8.0 | 11.3 | 0.00 | 0.00 | 0.00 | 89 | 1007.4 |
| 20260509080918 | 21 | 181 | 9.7 | 12.9 | 0.00 | 0.00 | 0.00 | 89 | 1007.3 |
| 20260509080416 | 21 | 176 | 12.9 | 16.1 | 0.00 | 0.00 | 0.00 | 90 | 1007.4 |
| 20260509075914 | 21 | 137 | 9.7 | 11.3 | 0.00 | 0.00 | 0.00 | 90 | 1007.8 |
| 20260509075410 | 21 | 119 | 8.0 | 12.9 | 0.00 | 0.00 | 0.00 | 90 | 1008.1 |
| 20260509074908 | 21 | 190 | 9.7 | 14.5 | 0.00 | 0.00 | 0.00 | 90 | 1008.5 |
| 20260509074406 | 21 | 180 | 8.0 | 11.3 | 0.00 | 0.00 | 0.00 | 90 | 1008.7 |
| 20260509073901 | 21 | 190 | 8.0 | 11.3 | 0.00 | 0.00 | 0.00 | 90 | 1008.9 |
| 20260509073358 | 21 | 163 | 4.8 | 8.0 | 0.00 | 0.00 | 0.00 | 90 | 1008.8 |
| 20260509072854 | 21 | 111 | 6.4 | 11.3 | 0.00 | 0.00 | 0.00 | 90 | 1009.3 |
| 20260509072351 | 21 | 154 | 3.2 | 4.8 | 0.00 | 0.00 | 0.00 | 90 | 1009.6 |
| 20260509071848 | 21 | 162 | 11.3 | 12.9 | 0.00 | 0.00 | 0.00 | 90 | 1009.7 |
| 20260509071345 | 21 | 191 | 4.8 | 8.0 | 0.00 | 0.00 | 0.00 | 90 | 1009.9 |
| 20260509070842 | 21 | 213 | 8.0 | 9.7 | 0.00 | 0.00 | 0.00 | 90 | 1009.8 |
| 20260509070338 | 21 | 199 | 4.8 | 4.8 | 0.00 | 0.00 | 0.00 | 90 | 1010.0 |
| 20260509065835 | 21 | 129 | 6.4 | 8.0 | 0.00 | 0.00 | 0.00 | 90 | 1010.2 |
| 20260509065331 | 21 | 77 | 3.2 | 3.2 | 0.00 | 0.00 | 0.00 | 89 | 1010.2 |
| 20260509064827 | 21 | 195 | 8.0 | 9.7 | 0.00 | 0.00 | 0.00 | 89 | 1010.0 |
| 20260509064325 | 21 | 215 | 8.0 | 11.3 | 0.00 | 0.00 | 0.00 | 89 | 1010.1 |
| 20260509063822 | 21 | 206 | 6.4 | 8.0 | 0.00 | 0.00 | 0.00 | 88 | 1010.4 |
| 20260509063318 | 21 | 263 | 3.2 | 3.2 | 0.00 | 0.00 | 0.00 | 88 | 1010.5 |
| 20260509062816 | 21 | 149 | 4.8 | 8.0 | 0.00 | 0.00 | 0.00 | 88 | 1010.4 |
| 20260509062313 | 21 | 74 | 3.2 | 3.2 | 0.00 | 0.00 | 0.00 | 88 | 1010.0 |
| 20260509061810 | 21 | 151 | 4.8 | 4.8 | 0.00 | 0.00 | 0.00 | 88 | 1010.0 |
| 20260509061308 | 21 | 170 | 8.0 | 12.9 | 0.00 | 0.00 | 0.00 | 88 | 1009.7 |
| 20260509060805 | 21 | 91 | 1.6 | 3.2 | 0.00 | 0.00 | 0.00 | 87 | 1010.2 |
| 20260509060301 | 21 | 220 | 3.2 | 3.2 | 0.00 | 0.00 | 0.00 | 87 | 1009.8 |
| 20260509055757 | 21 | 122 | 6.4 | 9.7 | 0.00 | 0.00 | 0.00 | 87 | 1009.7 |
| 20260509055252 | 21 | 184 | 3.2 | 4.8 | 0.00 | 0.00 | 0.00 | 87 | 1009.9 |
| 20260509054749 | 21 | 183 | 3.2 | 3.2 | 0.00 | 0.00 | 0.00 | 87 | 1010.0 |
| 20260509054246 | 21 | 99 | 4.8 | 8.0 | 0.00 | 0.00 | 0.00 | 86 | 1009.7 |
| 20260509053745 | 21 | 165 | 6.4 | 9.7 | 0.00 | 0.00 | 0.00 | 86 | 1010.0 |
| 20260509053242 | 21 | 92 | 3.2 | 3.2 | 0.00 | 0.00 | 0.00 | 85 | 1010.4 |
| 20260509052740 | 21 | 118 | 3.2 | 3.2 | 0.00 | 0.00 | 0.00 | 84 | 1010.6 |
| 20260509052237 | 22 | 207 | 3.2 | 3.2 | 0.00 | 0.00 | 0.00 | 84 | 1010.8 |
| 20260509051734 | 22 | 125 | 1.6 | 3.2 | 0.00 | 0.00 | 0.00 | 83 | 1011.0 |
| 20260509051232 | 22 | 234 | 1.6 | 3.2 | 0.00 | 0.00 | 0.00 | 83 | 1010.7 |
| 20260509050728 | 22 | 176 | 3.2 | 3.2 | 0.00 | 0.00 | 0.00 | 82 | 1011.1 |
| 20260509050225 | 22 | 99 | 3.2 | 3.2 | 0.00 | 0.00 | 0.00 | 82 | 1011.5 |
| 20260509040223 | 22 | 94 | 4.8 | 9.7 | 0.00 | 0.58 | 0.58 | 80 | 1009.9 |
| 20260509035719 | 22 | 94 | 4.8 | 9.7 | 0.00 | 0.58 | 0.58 | 80 | 1009.9 |
| 20260509035217 | 22 | 83 | 3.2 | 4.8 | 0.00 | 0.58 | 0.58 | 80 | 1009.8 |
| 20260509034714 | 22 | 145 | 6.4 | 9.7 | 0.00 | 0.58 | 0.58 | 80 | 1009.5 |
| 20260509034211 | 22 | 111 | 12.9 | 17.7 | 0.00 | 0.58 | 0.58 | 79 | 1009.6 |
| 20260509033708 | 22 | 158 | 11.3 | 12.9 | 0.00 | 0.58 | 0.58 | 79 | 1009.4 |
| 20260509033205 | 22 | 181 | 9.7 | 12.9 | 0.00 | 0.58 | 0.58 | 79 | 1009.3 |
| 20260509032702 | 22 | 153 | 9.7 | 11.3 | 0.00 | 0.58 | 0.58 | 79 | 1009.8 |
| 20260509032159 | 23 | 108 | 3.2 | 3.2 | 0.00 | 0.58 | 0.58 | 78 | 1010.3 |
| 20260509031657 | 22 | 88 | 0.0 | 0.0 | 0.00 | 0.58 | 0.58 | 78 | 1010.7 |
| 20260509031154 | 22 | 83 | 0.0 | 0.0 | 0.00 | 0.58 | 0.58 | 78 | 1010.8 |
| 20260509030652 | 22 | 74 | 0.0 | 0.0 | 0.00 | 0.58 | 0.58 | 78 | 1010.8 |
| 20260509030149 | 22 | 66 | 0.0 | 0.0 | 0.00 | 0.58 | 0.58 | 78 | 1010.8 |
| 20260509025645 | 22 | 72 | 0.0 | 0.0 | 0.00 | 0.58 | 0.58 | 78 | 1010.5 |
| 20260509025141 | 22 | 83 | 6.4 | 8.0 | 0.00 | 0.58 | 0.58 | 78 | 1010.6 |
| 20260509024636 | 22 | 93 | 1.6 | 3.2 | 0.00 | 0.58 | 0.58 | 78 | 1010.0 |
| 20260509024133 | 22 | 117 | 4.8 | 4.8 | 0.00 | 0.58 | 0.58 | 77 | 1010.0 |
| 20260509023631 | 22 | 123 | 3.2 | 3.2 | 0.00 | 0.58 | 0.58 | 78 | 1009.7 |
| 20260509023127 | 22 | 95 | 0.0 | 1.6 | 0.00 | 0.58 | 0.58 | 78 | 1009.6 |
| 20260509022623 | 22 | 97 | 1.6 | 1.6 | 0.00 | 0.58 | 0.58 | 78 | 1009.5 |
| 20260509022122 | 22 | 119 | 0.0 | 0.0 | 0.00 | 0.58 | 0.58 | 78 | 1009.3 |
| 20260509021618 | 22 | 161 | 4.8 | 4.8 | 0.00 | 0.58 | 0.58 | 78 | 1009.0 |
| 20260509021115 | 22 | 212 | 8.0 | 9.7 | 0.00 | 0.58 | 0.58 | 77 | 1008.8 |
| 20260509020614 | 22 | 160 | 14.5 | 16.1 | 0.00 | 0.58 | 0.58 | 77 | 1008.6 |
| 20260509020110 | 22 | 207 | 4.8 | 12.9 | 0.00 | 0.58 | 0.58 | 77 | 1008.6 |
| 20260509015609 | 22 | 166 | 4.8 | 8.0 | 0.00 | 0.58 | 0.58 | 77 | 1008.6 |
| 20260509015106 | 23 | 190 | 4.8 | 4.8 | 0.00 | 0.58 | 0.58 | 76 | 1008.7 |
| 20260509014603 | 23 | 115 | 4.8 | 4.8 | 0.00 | 0.58 | 0.58 | 76 | 1008.8 |
| 20260509014059 | 23 | 196 | 4.8 | 4.8 | 0.00 | 0.58 | 0.58 | 75 | 1008.7 |
| 20260509013556 | 23 | 216 | 3.2 | 4.8 | 0.00 | 0.58 | 0.58 | 75 | 1008.6 |
| 20260509013051 | 23 | 104 | 3.2 | 4.8 | 0.00 | 0.58 | 0.58 | 75 | 1008.6 |
| 20260509012549 | 23 | 189 | 3.2 | 3.2 | 0.00 | 0.58 | 0.58 | 74 | 1008.8 |
| 20260509012045 | 23 | 161 | 8.0 | 12.9 | 0.00 | 0.58 | 0.58 | 74 | 1008.7 |
| 20260509011543 | 23 | 204 | 9.7 | 11.3 | 0.00 | 0.58 | 0.58 | 73 | 1008.9 |
| 20260509011040 | 23 | 116 | 4.8 | 4.8 | 0.00 | 0.58 | 0.58 | 72 | 1008.8 |
| 20260509010538 | 23 | 192 | 8.0 | 9.7 | 0.00 | 0.58 | 0.58 | 72 | 1008.8 |
| 20260509010035 | 23 | 226 | 8.0 | 9.7 | 0.00 | 0.58 | 0.58 | 72 | 1008.6 |
| 20260509005533 | 24 | 172 | 8.0 | 9.7 | 0.00 | 0.58 | 0.58 | 72 | 1008.9 |
| 20260509005033 | 24 | 214 | 6.4 | 9.7 | 0.00 | 0.58 | 0.58 | 71 | 1008.7 |
| 20260509004530 | 24 | 157 | 6.4 | 9.7 | 0.00 | 0.58 | 0.58 | 71 | 1008.6 |
| 20260509004026 | 24 | 163 | 9.7 | 12.9 | 0.00 | 0.58 | 0.58 | 71 | 1008.3 |
| 20260509003525 | 24 | 111 | 8.0 | 11.3 | 0.00 | 0.58 | 0.58 | 70 | 1008.1 |
| 20260509003022 | 25 | 148 | 6.4 | 9.7 | 0.00 | 0.58 | 0.58 | 70 | 1008.0 |
| 20260509002519 | 25 | 174 | 6.4 | 9.7 | 0.00 | 0.58 | 0.58 | 69 | 1008.0 |
| 20260509002016 | 25 | 104 | 3.2 | 3.2 | 0.00 | 0.58 | 0.58 | 69 | 1008.0 |
| 20260509001514 | 25 | 218 | 9.7 | 12.9 | 0.00 | 0.58 | 0.58 | 68 | 1008.1 |
| 20260509001009 | 25 | 182 | 8.0 | 12.9 | 0.00 | 0.58 | 0.58 | 68 | 1008.0 |
| 20260509000508 | 25 | 191 | 8.0 | 11.3 | 0.00 | 0.58 | 0.58 | 67 | 1008.0 |
| 20260509000004 | 25 | 99 | 9.7 | 12.9 | 0.00 | 0.58 | 0.58 | 68 | 1008.1 |
| 20260508235502 | 25 | 167 | 12.9 | 16.1 | 0.00 | 0.58 | 0.58 | 67 | 1008.2 |
| 20260508234958 | 25 | 191 | 4.8 | 11.3 | 0.00 | 0.58 | 0.58 | 66 | 1008.3 |
| 20260508234455 | 25 | 123 | 4.8 | 11.3 | 0.00 | 0.58 | 0.58 | 66 | 1008.5 |
| 20260508233952 | 25 | 236 | 9.7 | 11.3 | 0.00 | 0.58 | 0.58 | 66 | 1008.5 |
| 20260508233452 | 26 | 154 | 6.4 | 8.0 | 0.00 | 0.58 | 0.58 | 66 | 1008.6 |
| 20260508232948 | 26 | 194 | 4.8 | 4.8 | 0.00 | 0.58 | 0.58 | 64 | 1008.6 |
| 20260508232445 | 26 | 223 | 4.8 | 9.7 | 0.00 | 0.58 | 0.58 | 63 | 1008.3 |
| 20260508231942 | 26 | 160 | 4.8 | 9.7 | 0.00 | 0.58 | 0.58 | 64 | 1008.5 |
| 20260508231439 | 26 | 191 | 12.9 | 16.1 | 0.00 | 0.58 | 0.58 | 65 | 1008.7 |
| 20260508230936 | 26 | 209 | 12.9 | 20.9 | 0.00 | 0.58 | 0.58 | 63 | 1008.5 |
| 20260508230433 | 26 | 181 | 9.7 | 11.3 | 0.00 | 0.58 | 0.58 | 64 | 1008.5 |
| 20260508225930 | 27 | 96 | 3.2 | 4.8 | 0.00 | 0.58 | 0.58 | 61 | 1008.3 |
| 20260508225427 | 27 | 196 | 6.4 | 9.7 | 0.00 | 0.58 | 0.58 | 61 | 1008.6 |
| 20260508224924 | 27 | 220 | 8.0 | 12.9 | 0.00 | 0.58 | 0.58 | 60 | 1008.3 |
| 20260508224422 | 27 | 227 | 8.0 | 9.7 | 0.00 | 0.58 | 0.58 | 60 | 1008.6 |
| 20260508223919 | 27 | 79 | 9.7 | 11.3 | 0.00 | 0.58 | 0.58 | 59 | 1008.6 |
| 20260508223417 | 27 | 228 | 8.0 | 11.3 | 0.00 | 0.58 | 0.58 | 59 | 1008.6 |
| 20260508222914 | 28 | 177 | 6.4 | 9.7 | 0.00 | 0.58 | 0.58 | 59 | 1008.6 |
| 20260508222411 | 28 | 230 | 6.4 | 9.7 | 0.00 | 0.58 | 0.58 | 57 | 1008.5 |
| 20260508221907 | 28 | 116 | 4.8 | 8.0 | 0.00 | 0.58 | 0.58 | 57 | 1008.8 |
| 20260508221403 | 27 | 160 | 6.4 | 9.7 | 0.00 | 0.58 | 0.58 | 58 | 1008.7 |
| 20260508220859 | 28 | 186 | 8.0 | 11.3 | 0.00 | 0.58 | 0.58 | 57 | 1008.8 |
| 20260508220356 | 28 | 117 | 4.8 | 8.0 | 0.00 | 0.58 | 0.58 | 58 | 1008.8 |
| 20260508215852 | 28 | 179 | 11.3 | 12.9 | 0.00 | 0.58 | 0.58 | 58 | 1008.5 |
| 20260508215349 | 28 | 185 | 8.0 | 9.7 | 0.00 | 0.58 | 0.58 | 57 | 1008.9 |
| 20260508214846 | 28 | 162 | 6.4 | 8.0 | 0.00 | 0.58 | 0.58 | 56 | 1008.6 |
| 20260508214344 | 28 | 221 | 4.8 | 4.8 | 0.00 | 0.58 | 0.58 | 58 | 1008.7 |
| 20260508213840 | 28 | 86 | 9.7 | 11.3 | 0.00 | 0.58 | 0.58 | 57 | 1008.8 |
| 20260508213337 | 27 | 90 | 8.0 | 9.7 | 0.00 | 0.58 | 0.58 | 58 | 1008.6 |
| 20260508212833 | 27 | 225 | 8.0 | 11.3 | 0.00 | 0.58 | 0.58 | 58 | 1008.8 |
| 20260508212330 | 27 | 119 | 3.2 | 4.8 | 0.00 | 0.58 | 0.58 | 59 | 1008.7 |
| 20260508211825 | 27 | 174 | 11.3 | 17.7 | 0.00 | 0.58 | 0.58 | 59 | 1008.6 |
| 20260508211321 | 27 | 182 | 8.0 | 11.3 | 0.00 | 0.58 | 0.58 | 58 | 1008.8 |
| 20260508210819 | 26 | 151 | 4.8 | 8.0 | 0.00 | 0.58 | 0.58 | 61 | 1008.9 |
| 20260508210315 | 27 | 177 | 11.3 | 14.5 | 0.00 | 0.58 | 0.58 | 60 | 1008.9 |
| 20260508205812 | 27 | 143 | 8.0 | 11.3 | 0.00 | 0.58 | 0.58 | 57 | 1009.4 |
| 20260508205308 | 27 | 106 | 6.4 | 9.7 | 0.00 | 0.58 | 0.58 | 59 | 1009.2 |
| 20260508204805 | 26 | 243 | 8.0 | 11.3 | 0.00 | 0.58 | 0.58 | 60 | 1009.6 |
| 20260508204302 | 25 | 241 | 6.4 | 9.7 | 0.00 | 0.58 | 0.58 | 63 | 1009.9 |
| 20260508203758 | 25 | 190 | 8.0 | 11.3 | 0.00 | 0.58 | 0.58 | 63 | 1010.4 |
| 20260508203254 | 25 | 227 | 12.9 | 16.1 | 0.00 | 0.58 | 0.58 | 64 | 1010.4 |
| 20260508202750 | 26 | 150 | 9.7 | 14.5 | 0.00 | 0.58 | 0.58 | 63 | 1010.5 |
| 20260508202247 | 26 | 226 | 12.9 | 14.5 | 0.00 | 0.58 | 0.58 | 62 | 1010.5 |
| 20260508201745 | 26 | 204 | 11.3 | 14.5 | 0.00 | 0.58 | 0.58 | 62 | 1010.5 |
| 20260508201241 | 26 | 211 | 14.5 | 16.1 | 0.00 | 0.58 | 0.58 | 60 | 1010.4 |
| 20260508200738 | 27 | 189 | 8.0 | 9.7 | 0.00 | 0.58 | 0.58 | 60 | 1010.3 |
| 20260508200234 | 27 | 246 | 11.3 | 16.1 | 0.00 | 0.58 | 0.58 | 60 | 1010.6 |
| 20260508195730 | 27 | 92 | 9.7 | 12.9 | 0.00 | 0.58 | 0.58 | 59 | 1010.5 |
| 20260508195227 | 27 | 147 | 9.7 | 11.3 | 0.00 | 0.58 | 0.58 | 59 | 1010.6 |
| 20260508194724 | 27 | 217 | 6.4 | 9.7 | 0.00 | 0.58 | 0.58 | 59 | 1010.7 |
| 20260508194220 | 27 | 214 | 11.3 | 16.1 | 0.00 | 0.58 | 0.58 | 57 | 1010.7 |
| 20260508193717 | 28 | 295 | 4.8 | 4.8 | 0.00 | 0.58 | 0.58 | 56 | 1010.8 |
| 20260508193214 | 28 | 205 | 9.7 | 12.9 | 0.00 | 0.58 | 0.58 | 54 | 1010.7 |
| 20260508192711 | 28 | 27 | 8.0 | 12.9 | 0.00 | 0.58 | 0.58 | 54 | 1010.8 |
| 20260508192208 | 28 | 251 | 4.8 | 8.0 | 0.00 | 0.58 | 0.58 | 53 | 1010.6 |
| 20260508191705 | 29 | 223 | 11.3 | 12.9 | 0.00 | 0.58 | 0.58 | 53 | 1010.9 |
| 20260508191201 | 28 | 207 | 6.4 | 9.7 | 0.00 | 0.58 | 0.58 | 53 | 1010.7 |
| 20260508190659 | 27 | 230 | 6.4 | 8.0 | 0.00 | 0.58 | 0.58 | 56 | 1010.8 |
| 20260508190155 | 30 | 252 | 8.0 | 9.7 | 0.00 | 0.58 | 0.58 | 50 | 1010.7 |
| 20260508185652 | 29 | 136 | 0.0 | 3.2 | 0.00 | 0.58 | 0.58 | 53 | 1011.2 |
| 20260508185149 | 29 | 264 | 8.0 | 9.7 | 0.00 | 0.58 | 0.58 | 51 | 1011.1 |
| 20260508184646 | 29 | 208 | 8.0 | 11.3 | 0.00 | 0.58 | 0.58 | 51 | 1010.9 |
| 20260508184144 | 28 | 183 | 4.8 | 4.8 | 0.00 | 0.58 | 0.58 | 54 | 1011.0 |
| 20260508183640 | 29 | 197 | 6.4 | 9.7 | 0.00 | 0.58 | 0.58 | 52 | 1010.9 |
| 20260508183136 | 29 | 107 | 4.8 | 4.8 | 0.00 | 0.58 | 0.58 | 52 | 1011.3 |
| 20260508182633 | 28 | 94 | 4.8 | 4.8 | 0.00 | 0.58 | 0.58 | 54 | 1011.3 |
| 20260508182129 | 29 | 56 | 4.8 | 8.0 | 0.00 | 0.58 | 0.58 | 51 | 1011.5 |
| 20260508181625 | 28 | 82 | 3.2 | 3.2 | 0.00 | 0.58 | 0.58 | 52 | 1011.8 |
| 20260508181123 | 28 | 115 | 6.4 | 9.7 | 0.00 | 0.58 | 0.58 | 50 | 1011.8 |
| 20260508180619 | 28 | 127 | 4.8 | 9.7 | 0.00 | 0.58 | 0.58 | 51 | 1011.9 |
| 20260508180116 | 27 | 223 | 3.2 | 4.8 | 0.00 | 0.58 | 0.58 | 52 | 1011.7 |
| 20260508175612 | 28 | 235 | 6.4 | 8.0 | 0.00 | 0.58 | 0.58 | 53 | 1011.9 |
| 20260508175109 | 27 | 168 | 4.8 | 8.0 | 0.00 | 0.58 | 0.58 | 53 | 1012.1 |
| 20260508174607 | 26 | 159 | 1.6 | 1.6 | 0.00 | 0.58 | 0.58 | 53 | 1012.1 |
| 20260508174103 | 27 | 195 | 4.8 | 8.0 | 0.00 | 0.58 | 0.58 | 53 | 1012.2 |
| 20260508173601 | 26 | 218 | 4.8 | 4.8 | 0.00 | 0.58 | 0.58 | 55 | 1012.1 |
| 20260508173056 | 26 | 163 | 11.3 | 12.9 | 0.00 | 0.58 | 0.58 | 56 | 1012.2 |
| 20260508172554 | 25 | 142 | 3.2 | 4.8 | 0.00 | 0.58 | 0.58 | 57 | 1012.2 |
| 20260508172050 | 25 | 176 | 9.7 | 12.9 | 0.00 | 0.58 | 0.58 | 58 | 1012.4 |
| 20260508171547 | 26 | 180 | 4.8 | 4.8 | 0.00 | 0.58 | 0.58 | 55 | 1012.6 |
| 20260508171043 | 25 | 17 | 6.4 | 8.0 | 0.00 | 0.58 | 0.58 | 55 | 1012.5 |
| 20260508170541 | 25 | 164 | 6.4 | 9.7 | 0.00 | 0.58 | 0.58 | 55 | 1012.8 |
| 20260508170038 | 26 | 129 | 4.8 | 4.8 | 0.00 | 0.58 | 0.58 | 55 | 1012.9 |
| 20260508165535 | 26 | 104 | 3.2 | 4.8 | 0.00 | 0.58 | 0.58 | 53 | 1013.0 |
| 20260508165032 | 25 | 190 | 1.6 | 4.8 | 0.00 | 0.58 | 0.58 | 57 | 1013.2 |
| 20260508164528 | 25 | 175 | 4.8 | 9.7 | 0.00 | 0.58 | 0.58 | 58 | 1013.2 |
| 20260508164025 | 25 | 114 | 3.2 | 4.8 | 0.00 | 0.58 | 0.58 | 58 | 1013.4 |
| 20260508163523 | 25 | 175 | 11.3 | 12.9 | 0.00 | 0.58 | 0.58 | 57 | 1013.4 |
| 20260508163019 | 23 | 143 | 4.8 | 9.7 | 0.00 | 0.58 | 0.58 | 60 | 1013.6 |
| 20260508162516 | 22 | 104 | 6.4 | 9.7 | 0.00 | 0.58 | 0.58 | 61 | 1013.8 |
| 20260508162013 | 22 | 216 | 4.8 | 8.0 | 0.00 | 0.58 | 0.58 | 63 | 1013.7 |
| 20260508161510 | 21 | 181 | 8.0 | 11.3 | 0.00 | 0.58 | 0.58 | 65 | 1013.8 |
| 20260508161007 | 22 | 93 | 4.8 | 8.0 | 0.00 | 0.58 | 0.58 | 65 | 1013.8 |
| 20260508160506 | 22 | 94 | 3.2 | 4.8 | 0.00 | 0.58 | 0.58 | 65 | 1013.9 |
| 20260508160002 | 22 | 113 | 3.2 | 3.2 | 0.00 | 0.58 | 0.58 | 64 | 1013.8 |
| 20260508155459 | 21 | 152 | 6.4 | 11.3 | 0.00 | 0.58 | 0.58 | 67 | 1013.8 |
| 20260508154956 | 21 | 113 | 4.8 | 8.0 | 0.00 | 0.58 | 0.58 | 68 | 1014.1 |
| 20260508154453 | 21 | 165 | 6.4 | 8.0 | 0.00 | 0.58 | 0.58 | 67 | 1014.3 |
| 20260508153950 | 21 | 136 | 4.8 | 4.8 | 0.00 | 0.58 | 0.58 | 68 | 1014.1 |
| 20260508153447 | 20 | 171 | 6.4 | 8.0 | 0.00 | 0.58 | 0.58 | 70 | 1014.1 |
| 20260508152943 | 20 | 129 | 1.6 | 3.2 | 0.00 | 0.58 | 0.58 | 71 | 1014.0 |
| 20260508152440 | 20 | 186 | 4.8 | 8.0 | 0.00 | 0.58 | 0.58 | 72 | 1014.5 |
| 20260508151936 | 20 | 189 | 6.4 | 8.0 | 0.00 | 0.58 | 0.58 | 69 | 1014.5 |
| 20260508151433 | 20 | 261 | 6.4 | 8.0 | 0.00 | 0.58 | 0.58 | 71 | 1014.5 |
| 20260508150929 | 20 | 121 | 1.6 | 3.2 | 0.00 | 0.58 | 0.58 | 74 | 1014.7 |
| 20260508150426 | 20 | 177 | 6.4 | 9.7 | 0.00 | 0.58 | 0.58 | 75 | 1014.2 |
| 20260508145922 | 20 | 120 | 4.8 | 4.8 | 0.00 | 0.58 | 0.58 | 75 | 1014.2 |
| 20260508145419 | 20 | 158 | 11.3 | 12.9 | 0.00 | 0.58 | 0.58 | 73 | 1014.6 |
| 20260508144915 | 20 | 127 | 0.0 | 1.6 | 0.00 | 0.58 | 0.58 | 77 | 1014.5 |
| 20260508144414 | 18 | 98 | 3.2 | 8.0 | 0.00 | 0.58 | 0.58 | 80 | 1014.5 |
| 20260508143911 | 18 | 145 | 6.4 | 8.0 | 0.00 | 0.58 | 0.58 | 80 | 1014.3 |
| 20260508143408 | 18 | 102 | 0.0 | 0.0 | 0.00 | 0.58 | 0.58 | 81 | 1014.9 |
| 20260508142904 | 18 | 105 | 3.2 | 3.2 | 0.00 | 0.58 | 0.58 | 80 | 1014.8 |
| 20260508142402 | 18 | 97 | 3.2 | 3.2 | 0.00 | 0.58 | 0.58 | 80 | 1015.0 |
| 20260508141858 | 18 | 106 | 0.0 | 1.6 | 0.00 | 0.58 | 0.58 | 82 | 1014.7 |
| 20260508141354 | 18 | 98 | 1.6 | 1.6 | 0.00 | 0.58 | 0.58 | 83 | 1014.8 |
| 20260508140852 | 17 | 92 | 1.6 | 1.6 | 0.00 | 0.58 | 0.58 | 86 | 1014.6 |
| 20260508140349 | 17 | 97 | 0.0 | 0.0 | 0.00 | 0.58 | 0.58 | 88 | 1015.0 |
| 20260508135844 | 17 | 89 | 0.0 | 0.0 | 0.00 | 0.58 | 0.58 | 90 | 1014.8 |
| 20260508135341 | 16 | 109 | 1.6 | 3.2 | 0.00 | 0.58 | 0.58 | 90 | 1014.9 |
| 20260508134837 | 16 | 120 | 0.0 | 0.0 | 0.00 | 0.58 | 0.58 | 92 | 1014.6 |
| 20260508134334 | 16 | 105 | 0.0 | 0.0 | 0.00 | 0.58 | 0.58 | 93 | 1014.6 |
| 20260508133831 | 16 | 99 | 1.6 | 1.6 | 0.00 | 0.58 | 0.58 | 94 | 1014.7 |
| 20260508133329 | 16 | 96 | 0.0 | 1.6 | 0.00 | 0.58 | 0.58 | 94 | 1014.7 |
| 20260508132826 | 16 | 96 | 1.6 | 1.6 | 0.00 | 0.58 | 0.58 | 95 | 1014.7 |
| 20260508132323 | 16 | 223 | 1.6 | 3.2 | 0.00 | 0.58 | 0.58 | 96 | 1015.0 |
| 20260508131820 | 16 | 134 | 3.2 | 3.2 | 0.00 | 0.58 | 0.58 | 95 | 1014.9 |
| 20260508131316 | 16 | 102 | 1.6 | 1.6 | 0.00 | 0.58 | 0.58 | 96 | 1014.8 |
| 20260508130812 | 15 | 105 | 1.6 | 3.2 | 0.00 | 0.58 | 0.58 | 96 | 1014.8 |
| 20260508130309 | 16 | 216 | 4.8 | 4.8 | 0.00 | 0.58 | 0.58 | 96 | 1014.8 |
| 20260508125805 | 15 | 117 | 3.2 | 8.0 | 0.00 | 0.58 | 0.58 | 96 | 1014.3 |
| 20260508125305 | 15 | 108 | 3.2 | 8.0 | 0.00 | 0.58 | 0.58 | 96 | 1014.3 |
| 20260508124800 | 15 | 165 | 3.2 | 4.8 | 0.00 | 0.58 | 0.58 | 96 | 1014.6 |
| 20260508124257 | 16 | 109 | 3.2 | 4.8 | 0.00 | 0.58 | 0.58 | 96 | 1014.7 |
| 20260508123755 | 15 | 107 | 0.0 | 1.6 | 0.00 | 0.58 | 0.58 | 96 | 1014.9 |
| 20260508123253 | 15 | 91 | 4.8 | 4.8 | 0.00 | 0.58 | 0.58 | 96 | 1014.6 |
| 20260508122749 | 15 | 89 | 0.0 | 1.6 | 0.00 | 0.58 | 0.58 | 97 | 1014.9 |
| 20260508122246 | 15 | 91 | 0.0 | 0.0 | 0.00 | 0.58 | 0.58 | 97 | 1015.8 |
| 20260508121743 | 15 | 199 | 0.0 | 0.0 | 0.00 | 0.58 | 0.58 | 96 | 1015.2 |
| 20260508121242 | 15 | 94 | 0.0 | 0.0 | 0.00 | 0.58 | 0.58 | 96 | 1014.8 |
| 20260508120738 | 15 | 140 | 4.8 | 4.8 | 0.00 | 0.58 | 0.58 | 96 | 1014.8 |
| 20260508120237 | 15 | 110 | 0.0 | 0.0 | 0.00 | 0.58 | 0.58 | 96 | 1014.9 |
| 20260508115734 | 15 | 86 | 0.0 | 0.0 | 0.00 | 0.58 | 0.58 | 96 | 1015.1 |
| 20260508115231 | 15 | 95 | 0.0 | 0.0 | 0.00 | 0.58 | 0.58 | 96 | 1015.0 |
| 20260508114727 | 15 | 85 | 0.0 | 0.0 | 0.00 | 0.58 | 0.58 | 96 | 1014.9 |
| 20260508114224 | 15 | 101 | 0.0 | 0.0 | 0.18 | 0.58 | 0.58 | 96 | 1015.1 |
| 20260508113721 | 15 | 104 | 0.0 | 0.0 | 0.18 | 0.58 | 0.58 | 96 | 1014.7 |
| 20260508113220 | 15 | 103 | 0.0 | 0.0 | 0.00 | 0.56 | 0.56 | 96 | 1014.9 |
| 20260508112715 | 15 | 86 | 0.0 | 0.0 | 0.30 | 0.56 | 0.56 | 96 | 1014.6 |
| 20260508112212 | 15 | 83 | 0.0 | 0.0 | 0.43 | 0.56 | 0.56 | 95 | 1014.6 |
| 20260508111709 | 15 | 151 | 4.8 | 4.8 | 0.13 | 0.51 | 0.51 | 95 | 1014.1 |
| 20260508111207 | 15 | 96 | 1.6 | 1.6 | 0.30 | 0.48 | 0.48 | 95 | 1014.6 |
| 20260508110704 | 15 | 159 | 3.2 | 4.8 | 0.30 | 0.48 | 0.48 | 95 | 1014.2 |
| 20260508110201 | 15 | 88 | 3.2 | 3.2 | 0.00 | 0.43 | 0.43 | 95 | 1014.1 |
| 20260508105700 | 15 | 123 | 3.2 | 3.2 | 0.18 | 0.43 | 0.43 | 94 | 1014.2 |
| 20260508105158 | 15 | 83 | 8.0 | 9.7 | 0.18 | 0.43 | 0.43 | 94 | 1014.0 |
| 20260508104655 | 15 | 130 | 4.8 | 8.0 | 0.18 | 0.41 | 0.41 | 94 | 1014.9 |
| 20260508104152 | 15 | 190 | 4.8 | 8.0 | 0.18 | 0.41 | 0.41 | 93 | 1015.1 |
| 20260508103649 | 15 | 113 | 0.0 | 0.0 | 0.43 | 0.38 | 0.38 | 93 | 1015.0 |
| 20260508103146 | 16 | 93 | 0.0 | 0.0 | 1.32 | 0.38 | 0.38 | 92 | 1014.7 |
| 20260508102643 | 16 | 124 | 3.2 | 4.8 | 1.68 | 0.30 | 0.30 | 91 | 1015.0 |
| 20260508102141 | 16 | 142 | 4.8 | 8.0 | 0.89 | 0.18 | 0.18 | 90 | 1013.9 |
| 20260508101638 | 16 | 184 | 4.8 | 4.8 | 0.00 | 0.03 | 0.03 | 87 | 1014.8 |
| 20260508101136 | 16 | 145 | 0.0 | 0.0 | 0.00 | 0.03 | 0.03 | 87 | 1014.6 |
| 20260508100633 | 16 | 342 | 1.6 | 3.2 | 0.00 | 0.03 | 0.03 | 87 | 1014.8 |
| 20260508100131 | 16 | 235 | 4.8 | 4.8 | 0.00 | 0.03 | 0.03 | 87 | 1014.5 |
| 20260508095627 | 16 | 113 | 3.2 | 3.2 | 0.00 | 0.03 | 0.03 | 88 | 1013.8 |
| 20260508095125 | 16 | 100 | 0.0 | 0.0 | 0.00 | 0.03 | 0.03 | 88 | 1013.7 |
| 20260508094621 | 16 | 123 | 4.8 | 4.8 | 0.00 | 0.03 | 0.03 | 88 | 1013.7 |
| 20260508094118 | 16 | 137 | 4.8 | 4.8 | 0.00 | 0.03 | 0.03 | 88 | 1013.6 |
| 20260508093615 | 16 | 102 | 0.0 | 0.0 | 0.00 | 0.03 | 0.03 | 88 | 1013.7 |
| 20260508093113 | 16 | 95 | 0.0 | 0.0 | 0.00 | 0.03 | 0.03 | 88 | 1013.7 |
| 20260508092610 | 16 | 118 | 0.0 | 0.0 | 0.00 | 0.03 | 0.03 | 88 | 1013.8 |
| 20260508092108 | 16 | 124 | 4.8 | 4.8 | 0.00 | 0.03 | 0.03 | 87 | 1014.0 |
| 20260508091605 | 16 | 101 | 0.0 | 0.0 | 0.00 | 0.03 | 0.03 | 87 | 1013.8 |